createdAt,value
2019-06-10T00:00:16.521Z,3.60
2019-06-10T00:02:48.094Z,3.40
2019-06-10T00:05:23.758Z,3.50
2019-06-10T00:07:57.993Z,3.60
2019-06-10T00:10:32.762Z,3.80
2019-06-10T00:13:05.749Z,3.80
2019-06-10T00:15:38.122Z,3.67
2019-06-10T00:18:31.843Z,4.00
2019-06-10T00:20:42.997Z,3.40
2019-06-10T00:23:17.342Z,3.70
2019-06-10T00:25:48.427Z,3.50
2019-06-10T00:28:21.766Z,3.30
2019-06-10T00:30:54.565Z,3.57
2019-06-10T00:33:31.501Z,3.40
2019-06-10T00:36:09.609Z,3.50
2019-06-10T00:38:41.971Z,4.03
2019-06-10T00:41:15.666Z,3.70
2019-06-10T00:43:51.739Z,4.00
2019-06-10T00:46:22.254Z,3.83
2019-06-10T00:48:55.621Z,3.73
2019-06-10T00:51:28.231Z,4.13
2019-06-10T00:54:03.351Z,3.47
2019-06-10T00:56:32.546Z,3.73
2019-06-10T00:59:04.105Z,3.77
2019-06-10T01:01:38.032Z,3.70
2019-06-10T01:04:11.386Z,3.73
2019-06-10T01:06:43.994Z,4.20
2019-06-10T01:09:21.670Z,4.03
2019-06-10T01:11:53.662Z,4.10
2019-06-10T01:14:27.319Z,4.37
2019-06-10T01:17:01.143Z,4.00
2019-06-10T01:19:33.250Z,4.10
2019-06-10T01:22:06.001Z,4.10
2019-06-10T01:24:37.365Z,4.40
2019-06-10T01:27:10.753Z,4.50
2019-06-10T01:29:41.681Z,4.30
2019-06-10T01:32:14.888Z,4.50
2019-06-10T01:34:45.322Z,4.60
2019-06-10T01:37:17.659Z,4.47
2019-06-10T01:39:51.395Z,4.43
2019-06-10T01:42:23.002Z,4.20
2019-06-10T01:44:55.427Z,4.10
2019-06-10T01:47:30.997Z,4.60
2019-06-10T01:50:04.295Z,4.27
2019-06-10T01:52:41.352Z,4.07
2019-06-10T01:55:15.570Z,4.17
2019-06-10T01:57:51.676Z,4.60
2019-06-10T02:00:26.254Z,4.10
2019-06-10T02:02:57.405Z,4.27
2019-06-10T02:05:31.084Z,4.00
2019-06-10T02:08:01.487Z,4.00
2019-06-10T02:10:34.510Z,4.30
2019-06-10T02:13:14.462Z,4.00
2019-06-10T02:15:43.247Z,4.53
2019-06-10T02:18:13.903Z,4.50
2019-06-10T02:20:46.157Z,4.40
2019-06-10T02:23:17.064Z,4.50
2019-06-10T02:25:51.264Z,4.90
2019-06-10T02:28:23.934Z,5.17
2019-06-10T02:30:57.193Z,5.13
2019-06-10T02:33:32.443Z,4.70
2019-06-10T02:36:06.856Z,4.70
2019-06-10T02:38:44.404Z,4.70
2019-06-10T02:41:18.041Z,4.50
2019-06-10T02:43:48.211Z,5.03
2019-06-10T02:46:31.058Z,4.40
2019-06-10T02:49:13.608Z,4.43
2019-06-10T02:51:35.896Z,4.37
2019-06-10T02:54:08.019Z,4.10
2019-06-10T02:56:39.017Z,4.23
2019-06-10T02:59:13.241Z,4.00
2019-06-10T03:01:48.997Z,4.13
2019-06-10T03:04:31.446Z,4.03
2019-06-10T03:06:54.691Z,4.10
2019-06-10T03:09:32.893Z,3.97
2019-06-10T03:12:08.454Z,4.03
2019-06-10T03:14:37.083Z,4.40
2019-06-10T03:17:13.057Z,4.20
2019-06-10T03:19:50.324Z,4.53
2019-06-10T03:22:20.614Z,3.93
2019-06-10T03:24:52.448Z,4.23
2019-06-10T03:27:26.583Z,4.37
2019-06-10T03:29:58.772Z,4.00
2019-06-10T03:32:40.642Z,4.20
2019-06-10T03:35:06.516Z,4.27
2019-06-10T03:37:39.471Z,3.90
2019-06-10T03:40:12.859Z,4.37
2019-06-10T03:42:44.771Z,4.00
2019-06-10T03:45:17.416Z,4.00
2019-06-10T03:47:48.592Z,4.00
2019-06-10T03:50:19.319Z,3.63
2019-06-10T03:52:54.563Z,3.70
2019-06-10T03:55:27.652Z,3.80
2019-06-10T03:58:02.255Z,3.73
2019-06-10T04:00:37.979Z,3.67
2019-06-10T04:03:12.145Z,3.47
2019-06-10T04:05:42.654Z,3.40
2019-06-10T04:08:13.406Z,3.20
2019-06-10T04:10:47.673Z,3.67
2019-06-10T04:13:23.646Z,3.43
2019-06-10T04:15:58.065Z,3.57
2019-06-10T04:18:33.034Z,3.80
2019-06-10T04:21:05.719Z,3.50
2019-06-10T04:23:36.018Z,3.67
2019-06-10T04:26:06.770Z,3.30
2019-06-10T04:28:42.942Z,3.27
2019-06-10T04:31:21.289Z,3.40
2019-06-10T04:33:53.852Z,3.30
2019-06-10T04:36:26.181Z,3.50
2019-06-10T04:38:56.619Z,3.33
2019-06-10T04:41:32.286Z,3.50
2019-06-10T04:44:12.958Z,3.53
2019-06-10T04:46:36.466Z,3.20
2019-06-10T04:49:13.275Z,3.23
2019-06-10T04:51:46.279Z,3.13
2019-06-10T04:54:18.468Z,3.17
2019-06-10T04:56:49.205Z,3.03
2019-06-10T04:59:23.699Z,3.20
2019-06-10T05:01:55.011Z,3.23
2019-06-10T05:04:28.776Z,3.33
2019-06-10T05:07:06.462Z,3.23
2019-06-10T05:09:42.243Z,3.30
2019-06-10T05:12:13.542Z,3.33
2019-06-10T05:14:44.535Z,3.13
2019-06-10T05:17:15.518Z,3.50
2019-06-10T05:19:46.661Z,3.07
2019-06-10T05:22:22.714Z,3.20
2019-06-10T05:24:52.943Z,3.13
2019-06-10T05:27:25.373Z,3.00
2019-06-10T05:29:58.478Z,2.93
2019-06-10T05:32:33.275Z,3.27
2019-06-10T05:35:03.641Z,2.90
2019-06-10T05:37:35.421Z,3.00
2019-06-10T05:40:12.584Z,2.73
2019-06-10T05:42:46.790Z,2.90
2019-06-10T05:45:17.626Z,2.73
2019-06-10T05:47:53.052Z,2.70
2019-06-10T05:50:24.068Z,3.10
2019-06-10T05:52:56.214Z,3.03
2019-06-10T05:55:33.337Z,2.70
2019-06-10T05:58:06.791Z,2.90
2019-06-10T06:00:45.219Z,3.00
2019-06-10T06:03:16.107Z,2.90
2019-06-10T06:05:52.360Z,2.90
2019-06-10T06:08:22.792Z,2.73
2019-06-10T06:10:59.761Z,2.83
2019-06-10T06:13:34.198Z,2.70
2019-06-10T06:16:12.377Z,3.00
2019-06-10T06:18:43.743Z,2.63
2019-06-10T06:21:25.762Z,2.90
2019-06-10T06:23:53.890Z,2.30
2019-06-10T06:26:26.329Z,2.60
2019-06-10T06:29:02.228Z,2.60
2019-06-10T06:31:38.413Z,2.60
2019-06-10T06:34:13.862Z,2.40
2019-06-10T06:36:45.449Z,2.50
2019-06-10T06:39:16.765Z,2.47
2019-06-10T06:41:47.751Z,2.40
2019-06-10T06:44:18.470Z,2.33
2019-06-10T06:46:49.114Z,2.70
2019-06-10T06:49:19.451Z,2.37
2019-06-10T06:51:58.386Z,2.63
2019-06-10T06:54:24.266Z,2.80
2019-06-10T06:56:54.990Z,2.67
2019-06-10T06:59:25.745Z,2.20
2019-06-10T07:02:02.948Z,2.30
2019-06-10T07:04:38.679Z,2.47
2019-06-10T07:07:17.314Z,2.40
2019-06-10T07:09:53.295Z,2.63
2019-06-10T07:12:26.048Z,2.33
2019-06-10T07:14:56.377Z,2.60
2019-06-10T07:17:28.956Z,2.43
2019-06-10T07:20:03.239Z,2.40
2019-06-10T07:22:40.177Z,2.20
2019-06-10T07:25:12.430Z,2.43
2019-06-10T07:27:46.940Z,2.50
2019-06-10T07:30:22.865Z,2.60
2019-06-10T07:32:52.820Z,2.40
2019-06-10T07:35:26.553Z,2.30
2019-06-10T07:37:57.303Z,2.30
2019-06-10T07:40:27.982Z,2.50
2019-06-10T07:43:02.346Z,2.30
2019-06-10T07:45:33.772Z,2.30
2019-06-10T07:48:06.251Z,2.60
2019-06-10T07:50:44.186Z,2.60
2019-06-10T07:53:16.554Z,2.20
2019-06-10T07:55:48.399Z,2.47
2019-06-10T07:58:18.662Z,2.40
2019-06-10T08:00:54.739Z,2.37
2019-06-10T08:03:26.435Z,2.47
2019-06-10T08:05:57.659Z,2.40
2019-06-10T08:08:32.624Z,2.47
2019-06-10T08:11:03.815Z,2.87
2019-06-10T08:13:35.286Z,2.70
2019-06-10T08:16:05.593Z,2.50
2019-06-10T08:18:44.495Z,2.80
2019-06-10T08:21:08.615Z,2.60
2019-06-10T08:23:43.595Z,2.70
2019-06-10T08:26:13.429Z,2.47
2019-06-10T08:28:46.503Z,2.37
2019-06-10T08:31:16.156Z,2.40
2019-06-10T08:33:48.794Z,2.30
2019-06-10T08:36:19.247Z,2.47
2019-06-10T08:38:52.440Z,2.67
2019-06-10T08:41:23.355Z,2.20
2019-06-10T08:43:56.993Z,2.50
2019-06-10T08:46:29.047Z,2.73
2019-06-10T08:49:03.172Z,2.43
2019-06-10T08:51:34.086Z,2.53
2019-06-10T08:54:04.711Z,2.57
2019-06-10T08:56:40.118Z,2.77
2019-06-10T08:59:14.851Z,2.57
2019-06-10T09:01:50.159Z,2.50
2019-06-10T09:04:19.821Z,2.67
2019-06-10T09:06:51.507Z,2.70
2019-06-10T09:09:23.659Z,2.40
2019-06-10T09:11:58.911Z,2.70
2019-06-10T09:14:29.523Z,2.60
2019-06-10T09:16:59.779Z,3.00
2019-06-10T09:19:33.050Z,2.53
2019-06-10T09:22:03.890Z,2.80
2019-06-10T09:24:35.243Z,2.80
2019-06-10T09:27:05.572Z,2.70
2019-06-10T09:29:36.316Z,3.20
2019-06-10T09:32:06.679Z,2.73
2019-06-10T09:34:37.367Z,3.00
2019-06-10T09:37:07.699Z,2.90
2019-06-10T09:39:39.801Z,2.87
2019-06-10T09:42:14.099Z,3.03
2019-06-10T09:44:50.833Z,2.80
2019-06-10T09:47:22.823Z,2.90
2019-06-10T09:49:56.513Z,3.00
2019-06-10T09:52:32.903Z,2.97
2019-06-10T09:55:12.472Z,3.00
2019-06-10T09:57:45.097Z,3.30
2019-06-10T10:00:19.593Z,3.17
2019-06-10T10:02:52.081Z,3.00
2019-06-10T10:05:23.358Z,3.07
2019-06-10T10:07:57.248Z,3.13
2019-06-10T10:10:36.350Z,3.00
2019-06-10T10:13:07.314Z,3.57
2019-06-10T10:15:39.078Z,3.00
2019-06-10T10:18:16.563Z,2.90
2019-06-10T10:20:49.776Z,3.30
2019-06-10T10:23:22.512Z,3.40
2019-06-10T10:25:56.897Z,3.10
2019-06-10T10:28:27.765Z,2.80
2019-06-10T10:30:58.469Z,3.00
2019-06-10T10:33:33.186Z,3.00
2019-06-10T10:36:03.109Z,3.20
2019-06-10T10:38:34.856Z,2.87
2019-06-10T10:41:05.972Z,2.87
2019-06-10T10:43:37.686Z,3.27
2019-06-10T10:46:14.627Z,3.07
2019-06-10T10:48:47.125Z,3.20
2019-06-10T10:51:22.892Z,3.30
2019-06-10T10:54:20.430Z,3.00
2019-06-10T10:56:26.062Z,3.20
2019-06-10T10:59:01.996Z,3.77
2019-06-10T11:01:34.585Z,4.10
2019-06-10T11:04:05.523Z,3.90
2019-06-10T11:06:36.131Z,4.00
2019-06-10T11:09:09.619Z,4.00
2019-06-10T11:11:44.079Z,4.00
2019-06-10T11:14:15.457Z,3.80
2019-06-10T11:16:47.174Z,3.87
2019-06-10T11:19:18.219Z,4.27
2019-06-10T11:21:49.566Z,4.43
2019-06-10T11:24:33.547Z,4.50
2019-06-10T11:26:56.491Z,4.17
2019-06-10T11:29:27.666Z,4.50
2019-06-10T11:32:02.524Z,4.33
2019-06-10T11:34:33.391Z,4.70
2019-06-10T11:37:05.228Z,4.83
2019-06-10T11:39:38.648Z,5.27
2019-06-10T11:42:08.127Z,5.37
2019-06-10T11:44:38.879Z,5.33
2019-06-10T11:47:09.490Z,5.33
2019-06-10T11:49:43.535Z,4.97
2019-06-10T11:52:23.703Z,5.40
2019-06-10T11:55:05.550Z,5.60
2019-06-10T11:57:29.233Z,5.93
2019-06-10T11:59:59.889Z,5.70
2019-06-10T12:02:32.919Z,5.97
2019-06-10T12:05:04.043Z,5.90
2019-06-10T12:07:36.370Z,6.00
2019-06-10T12:10:09.162Z,6.07
2019-06-10T12:12:43.464Z,6.33
2019-06-10T12:15:18.401Z,6.50
2019-06-10T12:17:55.620Z,6.40
2019-06-10T12:20:22.867Z,6.90
2019-06-10T12:22:58.202Z,6.80
2019-06-10T12:25:35.737Z,6.50
2019-06-10T12:28:08.001Z,6.67
2019-06-10T12:30:38.557Z,6.50
2019-06-10T12:33:09.938Z,7.20
2019-06-10T12:35:42.336Z,7.57
2019-06-10T12:38:13.990Z,7.13
2019-06-10T12:40:45.271Z,7.30
2019-06-10T12:43:16.368Z,7.43
2019-06-10T12:45:47.514Z,7.73
2019-06-10T12:48:18.626Z,7.40
2019-06-10T12:50:53.846Z,7.20
2019-06-10T12:53:24.906Z,7.90
2019-06-10T12:55:55.864Z,7.77
2019-06-10T12:58:27.599Z,8.10
2019-06-10T13:00:59.569Z,8.07
2019-06-10T13:03:32.920Z,8.90
2019-06-10T13:06:07.282Z,7.70
2019-06-10T13:08:38.247Z,8.50
2019-06-10T13:11:08.835Z,7.90
2019-06-10T13:13:39.535Z,7.90
2019-06-10T13:16:14.114Z,7.90
2019-06-10T13:18:43.101Z,7.97
2019-06-10T13:21:17.761Z,8.23
2019-06-10T13:23:48.974Z,8.30
2019-06-10T13:26:20.197Z,8.20
2019-06-10T13:28:52.533Z,7.80
2019-06-10T13:31:23.785Z,8.40
2019-06-10T13:33:56.520Z,7.80
2019-06-10T13:36:27.691Z,8.60
2019-06-10T13:38:59.184Z,8.33
2019-06-10T13:41:33.290Z,8.10
2019-06-10T13:44:04.700Z,8.20
2019-06-10T13:46:37.657Z,8.33
2019-06-10T13:49:13.124Z,8.90
2019-06-10T13:51:53.475Z,8.57
2019-06-10T13:54:24.612Z,8.60
2019-06-10T13:57:03.679Z,8.73
2019-06-10T13:59:33.903Z,8.77
2019-06-10T14:02:08.098Z,8.50
2019-06-10T14:04:38.690Z,8.60
2019-06-10T14:07:17.243Z,9.10
2019-06-10T14:09:45.602Z,8.93
2019-06-10T14:12:17.575Z,8.37
2019-06-10T14:14:49.303Z,9.17
2019-06-10T14:17:22.745Z,9.17
2019-06-10T14:19:52.902Z,9.00
2019-06-10T14:22:24.089Z,8.33
2019-06-10T14:24:55.252Z,8.73
2019-06-10T14:27:26.376Z,9.43
2019-06-10T14:29:57.520Z,8.57
2019-06-10T14:32:28.974Z,8.80
2019-06-10T14:35:00.040Z,8.80
2019-06-10T14:37:38.753Z,9.07
2019-06-10T14:40:08.775Z,8.60
2019-06-10T14:42:39.707Z,9.03
2019-06-10T14:45:16.562Z,9.10
2019-06-10T14:47:46.886Z,8.47
2019-06-10T14:50:17.578Z,8.90
2019-06-10T14:52:48.296Z,9.27
2019-06-10T14:55:18.742Z,8.43
2019-06-10T14:57:49.624Z,8.50
2019-06-10T15:00:20.214Z,8.77
2019-06-10T15:02:53.412Z,8.60
2019-06-10T15:05:23.356Z,9.07
2019-06-10T15:07:54.082Z,9.17
2019-06-10T15:10:25.006Z,8.73
2019-06-10T15:12:55.347Z,8.70
2019-06-10T15:15:26.331Z,8.30
2019-06-10T15:17:59.513Z,8.33
2019-06-10T15:20:30.081Z,8.90
2019-06-10T15:23:03.499Z,8.83
2019-06-10T15:25:49.255Z,8.77
2019-06-10T15:28:10.653Z,8.63
2019-06-10T15:30:43.188Z,8.90
2019-06-10T15:33:16.532Z,8.83
2019-06-10T15:35:46.636Z,8.77
2019-06-10T15:38:18.852Z,8.57
2019-06-10T15:40:54.564Z,8.57
2019-06-10T15:43:24.118Z,8.97
2019-06-10T15:45:54.863Z,8.53
2019-06-10T15:48:25.680Z,8.90
2019-06-10T15:50:56.551Z,9.50
2019-06-10T15:53:27.258Z,9.00
2019-06-10T15:56:24.990Z,8.80
2019-06-10T15:58:31.974Z,8.93
2019-06-10T16:01:02.965Z,8.63
2019-06-10T16:03:33.470Z,8.93
2019-06-10T16:06:07.219Z,9.17
2019-06-10T16:08:37.717Z,8.93
2019-06-10T16:11:09.684Z,8.60
2019-06-10T16:13:39.997Z,9.50
2019-06-10T16:16:14.793Z,8.70
2019-06-10T16:18:47.116Z,9.27
2019-06-10T16:21:22.118Z,8.80
2019-06-10T16:23:53.556Z,9.10
2019-06-10T16:26:27.835Z,8.87
2019-06-10T16:28:59.048Z,8.87
2019-06-10T16:31:30.491Z,9.20
2019-06-10T16:34:04.320Z,8.73
2019-06-10T16:36:33.531Z,8.80
2019-06-10T16:39:05.674Z,8.83
2019-06-10T16:41:36.420Z,9.23
2019-06-10T16:44:07.454Z,8.90
2019-06-10T16:46:37.954Z,8.60
2019-06-10T16:49:09.162Z,8.90
2019-06-10T16:51:42.746Z,9.13
2019-06-10T16:54:13.075Z,8.70
2019-06-10T16:56:43.699Z,9.13
2019-06-10T16:59:14.622Z,8.93
2019-06-10T17:01:44.982Z,8.70
2019-06-10T17:04:23.989Z,9.00
2019-06-10T17:06:53.083Z,9.07
2019-06-10T17:09:26.172Z,9.13
2019-06-10T17:11:57.060Z,9.30
2019-06-10T17:14:28.243Z,8.83
2019-06-10T17:16:59.382Z,8.87
2019-06-10T17:19:33.167Z,9.00
2019-06-10T17:22:06.290Z,9.10
2019-06-10T17:24:42.098Z,9.27
2019-06-10T17:27:13.079Z,9.00
2019-06-10T17:29:46.143Z,8.47
2019-06-10T17:32:17.315Z,8.90
2019-06-10T17:34:48.435Z,8.93
2019-06-10T17:37:20.311Z,8.43
2019-06-10T17:39:53.023Z,8.90
2019-06-10T17:42:28.887Z,8.67
2019-06-10T17:44:57.058Z,8.87
2019-06-10T17:47:31.720Z,9.30
2019-06-10T17:50:02.473Z,8.80
2019-06-10T17:52:38.547Z,8.90
2019-06-10T17:55:06.813Z,9.07
2019-06-10T17:57:43.000Z,9.00
2019-06-10T18:00:15.153Z,8.80
2019-06-10T18:02:46.472Z,8.80
2019-06-10T18:05:17.541Z,8.40
2019-06-10T18:07:48.715Z,9.00
2019-06-10T18:10:25.567Z,8.63
2019-06-10T18:13:10.160Z,8.40
2019-06-10T18:15:30.340Z,8.43
2019-06-10T18:18:03.527Z,8.47
2019-06-10T18:20:36.956Z,8.50
2019-06-10T18:23:08.366Z,8.53
2019-06-10T18:25:43.319Z,8.53
2019-06-10T18:28:16.106Z,8.73
2019-06-10T18:30:49.683Z,8.37
2019-06-10T18:33:23.116Z,8.60
2019-06-10T18:35:53.405Z,9.03
2019-06-10T18:38:24.253Z,8.77
2019-06-10T18:40:54.969Z,8.57
2019-06-10T18:43:27.676Z,8.43
2019-06-10T18:45:58.820Z,8.27
2019-06-10T18:48:35.985Z,8.40
2019-06-10T18:51:06.278Z,8.27
2019-06-10T18:53:51.023Z,8.63
2019-06-10T18:56:27.642Z,8.37
2019-06-10T18:59:13.520Z,8.80
2019-06-10T19:01:34.373Z,8.17
2019-06-10T19:04:05.369Z,7.90
2019-06-10T19:06:37.003Z,7.97
2019-06-10T19:09:12.871Z,8.40
2019-06-10T19:11:43.422Z,8.40
2019-06-10T19:14:14.382Z,8.13
2019-06-10T19:16:47.438Z,8.07
2019-06-10T19:19:23.987Z,8.13
2019-06-10T19:22:05.212Z,8.03
2019-06-10T19:24:36.748Z,8.30
2019-06-10T19:27:08.831Z,7.90
2019-06-10T19:29:47.027Z,7.67
2019-06-10T19:32:13.202Z,8.20
2019-06-10T19:34:48.358Z,8.10
2019-06-10T19:37:17.903Z,8.50
2019-06-10T19:39:54.134Z,8.10
2019-06-10T19:42:25.863Z,7.90
2019-06-10T19:44:59.184Z,8.20
2019-06-10T19:47:29.671Z,8.50
2019-06-10T19:50:03.141Z,8.43
2019-06-10T19:52:35.256Z,7.67
2019-06-10T19:55:08.605Z,8.07
2019-06-10T19:57:40.021Z,7.80
2019-06-10T20:00:12.948Z,8.03
2019-06-10T20:02:48.822Z,7.93
2019-06-10T20:05:20.951Z,8.20
2019-06-10T20:07:56.980Z,8.13
2019-06-10T20:10:32.446Z,8.27
2019-06-10T20:13:03.235Z,8.10
2019-06-10T20:15:35.313Z,8.00
2019-06-10T20:18:06.487Z,8.37
2019-06-10T20:20:40.110Z,7.93
2019-06-10T20:23:12.138Z,8.00
2019-06-10T20:25:44.294Z,8.00
2019-06-10T20:28:17.967Z,8.07
2019-06-10T20:30:53.164Z,8.27
2019-06-10T20:33:37.035Z,7.70
2019-06-10T20:36:16.615Z,8.00
2019-06-10T20:38:46.464Z,7.97
2019-06-10T20:41:16.276Z,8.07
2019-06-10T20:43:47.336Z,8.00
2019-06-10T20:46:23.538Z,8.00
2019-06-10T20:48:58.299Z,8.37
2019-06-10T20:51:29.743Z,8.00
2019-06-10T20:54:02.751Z,8.20
2019-06-10T20:56:34.179Z,7.60
2019-06-10T20:59:05.636Z,8.30
2019-06-10T21:01:36.383Z,7.93
2019-06-10T21:04:13.194Z,7.90
2019-06-10T21:06:47.412Z,8.20
2019-06-10T21:09:22.502Z,7.60
2019-06-10T21:11:54.457Z,8.10
2019-06-10T21:14:30.347Z,7.97
2019-06-10T21:17:03.160Z,8.00
2019-06-10T21:19:37.081Z,8.10
2019-06-10T21:22:08.460Z,8.00
2019-06-10T21:24:38.913Z,8.20
2019-06-10T21:27:15.457Z,7.57
2019-06-10T21:29:47.501Z,7.90
2019-06-10T21:32:20.910Z,8.30
2019-06-10T21:34:53.455Z,8.13
2019-06-10T21:37:23.702Z,7.83
2019-06-10T21:39:55.393Z,7.83
2019-06-10T21:42:30.016Z,7.50
2019-06-10T21:45:00.327Z,7.67
2019-06-10T21:47:32.356Z,8.00
2019-06-10T21:50:03.062Z,7.50
2019-06-10T21:52:33.883Z,7.73
2019-06-10T21:55:06.776Z,8.07
2019-06-10T21:57:42.601Z,7.43
2019-06-10T22:00:18.183Z,8.40
2019-06-10T22:02:52.981Z,7.90
2019-06-10T22:05:22.562Z,8.03
2019-06-10T22:07:56.412Z,7.90
2019-06-10T22:10:27.620Z,8.20
2019-06-10T22:13:03.164Z,8.77
2019-06-10T22:15:39.240Z,8.73
2019-06-10T22:18:12.415Z,8.53
2019-06-10T22:20:48.900Z,8.53
2019-06-10T22:23:23.234Z,8.20
2019-06-10T22:25:57.484Z,9.00
2019-06-10T22:28:27.087Z,8.87
2019-06-10T22:31:15.199Z,8.47
2019-06-10T22:33:31.366Z,8.80
2019-06-10T22:36:02.734Z,8.37
2019-06-10T22:38:33.246Z,8.30
2019-06-10T22:41:06.540Z,8.10
2019-06-10T22:43:37.177Z,8.13
2019-06-10T22:46:10.114Z,7.90
2019-06-10T22:48:45.176Z,7.30
2019-06-10T22:51:19.496Z,8.10
2019-06-10T22:53:50.840Z,7.90
2019-06-10T22:56:25.121Z,7.90
2019-06-10T22:58:57.179Z,7.40
2019-06-10T23:01:34.347Z,8.03
2019-06-10T23:04:03.765Z,8.00
2019-06-10T23:06:37.300Z,8.13
2019-06-10T23:09:08.302Z,7.13
2019-06-10T23:11:38.882Z,8.03
2019-06-10T23:14:12.389Z,7.60
2019-06-10T23:16:43.026Z,7.80
2019-06-10T23:19:13.761Z,7.90
2019-06-10T23:21:44.464Z,7.60
2019-06-10T23:24:15.129Z,7.80
2019-06-10T23:26:45.767Z,7.80
2019-06-10T23:29:19.871Z,7.30
2019-06-10T23:32:00.705Z,7.70
2019-06-10T23:34:28.816Z,7.43
2019-06-10T23:37:00.308Z,7.53
2019-06-10T23:39:33.578Z,7.77
2019-06-10T23:42:04.630Z,7.90
2019-06-10T23:44:36.325Z,7.77
2019-06-10T23:47:06.888Z,7.60
2019-06-10T23:49:37.633Z,7.60
2019-06-10T23:52:08.235Z,7.50
2019-06-10T23:54:38.631Z,7.57
2019-06-10T23:57:09.065Z,7.50
2019-06-10T23:59:39.729Z,7.60
